<?xml version="1.0" encoding="UTF-8" standalone="no" ?>
<gpx xmlns="http://www.topografix.com/GPX/1/1" xmlns:xsi="http://www.w3.org/2001/XMLSchema-instance" xsi:schemaLocation="http://www.topografix.com/GPX/1/1 http://www.topografix.com/GPX/1/1/gpx.xsd" version="1.1" creator="VisuGPX - https://www.visugpx.com">
  <metadata>
    <name>Randonnée école d\'Authoison 2014</name>
    <desc><![CDATA[Carte de la randonnée USEP 2014 Authoison]]></desc>
  </metadata>
  <trk>
    <name><![CDATA[Sequence 1]]></name>
    <trkseg>
      <trkpt lat="47.48905" lon="6.1592">
        <ele>272</ele>
        <time>2014-10-03T07:39:10Z</time>
      </trkpt>
      <trkpt lat="47.48901" lon="6.15929">
        <ele>271</ele>
        <time>2014-10-03T07:39:19Z</time>
      </trkpt>
      <trkpt lat="47.48898" lon="6.1594">
        <ele>271</ele>
        <time>2014-10-03T07:39:25Z</time>
      </trkpt>
      <trkpt lat="47.48886" lon="6.15965">
        <ele>272</ele>
        <time>2014-10-03T07:39:39Z</time>
      </trkpt>
      <trkpt lat="47.48888" lon="6.15977">
        <ele>269</ele>
        <time>2014-10-03T07:39:47Z</time>
      </trkpt>
      <trkpt lat="47.48884" lon="6.15982">
        <ele>268</ele>
        <time>2014-10-03T07:39:57Z</time>
      </trkpt>
      <trkpt lat="47.48883" lon="6.15986">
        <ele>268</ele>
        <time>2014-10-03T07:40:00Z</time>
      </trkpt>
      <trkpt lat="47.48878" lon="6.16003">
        <ele>266</ele>
        <time>2014-10-03T07:40:10Z</time>
      </trkpt>
      <trkpt lat="47.48873" lon="6.16011">
        <ele>265</ele>
        <time>2014-10-03T07:40:20Z</time>
      </trkpt>
      <trkpt lat="47.48869" lon="6.1602">
        <ele>269</ele>
        <time>2014-10-03T07:40:29Z</time>
      </trkpt>
      <trkpt lat="47.48866" lon="6.16057">
        <ele>278</ele>
        <time>2014-10-03T07:40:40Z</time>
      </trkpt>
      <trkpt lat="47.48865" lon="6.16054">
        <ele>276</ele>
        <time>2014-10-03T07:40:47Z</time>
      </trkpt>
      <trkpt lat="47.4886" lon="6.16065">
        <ele>271</ele>
        <time>2014-10-03T07:41:00Z</time>
      </trkpt>
      <trkpt lat="47.48855" lon="6.16084">
        <ele>271</ele>
        <time>2014-10-03T07:41:12Z</time>
      </trkpt>
      <trkpt lat="47.48853" lon="6.16101">
        <ele>268</ele>
        <time>2014-10-03T07:41:21Z</time>
      </trkpt>
      <trkpt lat="47.48853" lon="6.16103">
        <ele>269</ele>
        <time>2014-10-03T07:41:22Z</time>
      </trkpt>
      <trkpt lat="47.48851" lon="6.16119">
        <ele>266</ele>
        <time>2014-10-03T07:41:31Z</time>
      </trkpt>
      <trkpt lat="47.48846" lon="6.16142">
        <ele>269</ele>
        <time>2014-10-03T07:41:46Z</time>
      </trkpt>
      <trkpt lat="47.48845" lon="6.16167">
        <ele>271</ele>
        <time>2014-10-03T07:41:57Z</time>
      </trkpt>
      <trkpt lat="47.48845" lon="6.16172">
        <ele>272</ele>
        <time>2014-10-03T07:41:59Z</time>
      </trkpt>
      <trkpt lat="47.48848" lon="6.16186">
        <ele>273</ele>
        <time>2014-10-03T07:42:07Z</time>
      </trkpt>
      <trkpt lat="47.48844" lon="6.16202">
        <ele>273</ele>
        <time>2014-10-03T07:42:23Z</time>
      </trkpt>
      <trkpt lat="47.48839" lon="6.1621">
        <ele>274</ele>
        <time>2014-10-03T07:42:27Z</time>
      </trkpt>
      <trkpt lat="47.48833" lon="6.16224">
        <ele>273</ele>
        <time>2014-10-03T07:42:51Z</time>
      </trkpt>
      <trkpt lat="47.48833" lon="6.16232">
        <ele>272</ele>
        <time>2014-10-03T07:43:12Z</time>
      </trkpt>
      <trkpt lat="47.4884" lon="6.16259">
        <ele>273</ele>
        <time>2014-10-03T07:43:24Z</time>
      </trkpt>
      <trkpt lat="47.4884" lon="6.16262">
        <ele>273</ele>
        <time>2014-10-03T07:43:28Z</time>
      </trkpt>
      <trkpt lat="47.48841" lon="6.16265">
        <ele>274</ele>
        <time>2014-10-03T07:43:39Z</time>
      </trkpt>
      <trkpt lat="47.48844" lon="6.16302">
        <ele>281</ele>
        <time>2014-10-03T07:43:55Z</time>
      </trkpt>
      <trkpt lat="47.48845" lon="6.16304">
        <ele>282</ele>
        <time>2014-10-03T07:44:04Z</time>
      </trkpt>
      <trkpt lat="47.48845" lon="6.16306">
        <ele>283</ele>
        <time>2014-10-03T07:44:06Z</time>
      </trkpt>
      <trkpt lat="47.48842" lon="6.16368">
        <ele>284</ele>
        <time>2014-10-03T07:44:20Z</time>
      </trkpt>
      <trkpt lat="47.48843" lon="6.16375">
        <ele>287</ele>
        <time>2014-10-03T07:44:29Z</time>
      </trkpt>
      <trkpt lat="47.48844" lon="6.16402">
        <ele>292</ele>
        <time>2014-10-03T07:44:39Z</time>
      </trkpt>
      <trkpt lat="47.4884" lon="6.16416">
        <ele>294</ele>
        <time>2014-10-03T07:44:45Z</time>
      </trkpt>
      <trkpt lat="47.48838" lon="6.1644">
        <ele>296</ele>
        <time>2014-10-03T07:44:56Z</time>
      </trkpt>
      <trkpt lat="47.48833" lon="6.16455">
        <ele>298</ele>
        <time>2014-10-03T07:45:05Z</time>
      </trkpt>
      <trkpt lat="47.48835" lon="6.16467">
        <ele>300</ele>
        <time>2014-10-03T07:45:14Z</time>
      </trkpt>
      <trkpt lat="47.48836" lon="6.16474">
        <ele>304</ele>
        <time>2014-10-03T07:45:25Z</time>
      </trkpt>
      <trkpt lat="47.48835" lon="6.16475">
        <ele>306</ele>
        <time>2014-10-03T07:45:33Z</time>
      </trkpt>
      <trkpt lat="47.48834" lon="6.16476">
        <ele>307</ele>
        <time>2014-10-03T07:45:35Z</time>
      </trkpt>
      <trkpt lat="47.48836" lon="6.16514">
        <ele>312</ele>
        <time>2014-10-03T07:46:26Z</time>
      </trkpt>
      <trkpt lat="47.48831" lon="6.16522">
        <ele>309</ele>
        <time>2014-10-03T07:46:32Z</time>
      </trkpt>
      <trkpt lat="47.48824" lon="6.16538">
        <ele>312</ele>
        <time>2014-10-03T07:46:44Z</time>
      </trkpt>
      <trkpt lat="47.48827" lon="6.16545">
        <ele>313</ele>
        <time>2014-10-03T07:46:53Z</time>
      </trkpt>
      <trkpt lat="47.48829" lon="6.16554">
        <ele>311</ele>
        <time>2014-10-03T07:47:06Z</time>
      </trkpt>
      <trkpt lat="47.48812" lon="6.16637">
        <ele>269</ele>
        <time>2014-10-03T07:48:05Z</time>
      </trkpt>
      <trkpt lat="47.4881" lon="6.1664">
        <ele>270</ele>
        <time>2014-10-03T07:48:11Z</time>
      </trkpt>
      <trkpt lat="47.48812" lon="6.1665">
        <ele>273</ele>
        <time>2014-10-03T07:48:17Z</time>
      </trkpt>
      <trkpt lat="47.48807" lon="6.16675">
        <ele>275</ele>
        <time>2014-10-03T07:48:31Z</time>
      </trkpt>
      <trkpt lat="47.48809" lon="6.16688">
        <ele>275</ele>
        <time>2014-10-03T07:48:41Z</time>
      </trkpt>
      <trkpt lat="47.48809" lon="6.16699">
        <ele>275</ele>
        <time>2014-10-03T07:48:47Z</time>
      </trkpt>
      <trkpt lat="47.48809" lon="6.16712">
        <ele>275</ele>
        <time>2014-10-03T07:48:55Z</time>
      </trkpt>
      <trkpt lat="47.48809" lon="6.16718">
        <ele>275</ele>
        <time>2014-10-03T07:49:04Z</time>
      </trkpt>
      <trkpt lat="47.48809" lon="6.16728">
        <ele>277</ele>
        <time>2014-10-03T07:49:09Z</time>
      </trkpt>
      <trkpt lat="47.48807" lon="6.16756">
        <ele>280</ele>
        <time>2014-10-03T07:49:25Z</time>
      </trkpt>
      <trkpt lat="47.48806" lon="6.16765">
        <ele>279</ele>
        <time>2014-10-03T07:49:29Z</time>
      </trkpt>
      <trkpt lat="47.48801" lon="6.16786">
        <ele>275</ele>
        <time>2014-10-03T07:49:44Z</time>
      </trkpt>
      <trkpt lat="47.488" lon="6.16791">
        <ele>276</ele>
        <time>2014-10-03T07:49:48Z</time>
      </trkpt>
      <trkpt lat="47.48797" lon="6.16818">
        <ele>277</ele>
        <time>2014-10-03T07:50:02Z</time>
      </trkpt>
      <trkpt lat="47.48795" lon="6.16821">
        <ele>276</ele>
        <time>2014-10-03T07:50:05Z</time>
      </trkpt>
      <trkpt lat="47.48792" lon="6.16846">
        <ele>275</ele>
        <time>2014-10-03T07:50:20Z</time>
      </trkpt>
      <trkpt lat="47.4879" lon="6.16853">
        <ele>276</ele>
        <time>2014-10-03T07:50:27Z</time>
      </trkpt>
      <trkpt lat="47.48788" lon="6.16862">
        <ele>277</ele>
        <time>2014-10-03T07:50:32Z</time>
      </trkpt>
      <trkpt lat="47.48781" lon="6.16885">
        <ele>273</ele>
        <time>2014-10-03T07:50:47Z</time>
      </trkpt>
      <trkpt lat="47.48777" lon="6.16895">
        <ele>270</ele>
        <time>2014-10-03T07:50:56Z</time>
      </trkpt>
      <trkpt lat="47.48774" lon="6.16905">
        <ele>274</ele>
        <time>2014-10-03T07:51:03Z</time>
      </trkpt>
      <trkpt lat="47.4877" lon="6.16917">
        <ele>275</ele>
        <time>2014-10-03T07:51:12Z</time>
      </trkpt>
      <trkpt lat="47.48764" lon="6.16931">
        <ele>276</ele>
        <time>2014-10-03T07:51:21Z</time>
      </trkpt>
      <trkpt lat="47.48761" lon="6.16949">
        <ele>275</ele>
        <time>2014-10-03T07:51:31Z</time>
      </trkpt>
      <trkpt lat="47.4876" lon="6.16945">
        <ele>271</ele>
        <time>2014-10-03T07:51:36Z</time>
      </trkpt>
      <trkpt lat="47.48758" lon="6.16961">
        <ele>271</ele>
        <time>2014-10-03T07:51:57Z</time>
      </trkpt>
      <trkpt lat="47.48755" lon="6.16967">
        <ele>271</ele>
        <time>2014-10-03T07:52:02Z</time>
      </trkpt>
      <trkpt lat="47.48755" lon="6.16977">
        <ele>269</ele>
        <time>2014-10-03T07:52:15Z</time>
      </trkpt>
      <trkpt lat="47.48756" lon="6.16981">
        <ele>265</ele>
        <time>2014-10-03T07:52:28Z</time>
      </trkpt>
      <trkpt lat="47.48757" lon="6.17002">
        <ele>265</ele>
        <time>2014-10-03T07:52:36Z</time>
      </trkpt>
      <trkpt lat="47.4876" lon="6.17013">
        <ele>268</ele>
        <time>2014-10-03T07:52:51Z</time>
      </trkpt>
      <trkpt lat="47.48764" lon="6.17019">
        <ele>269</ele>
        <time>2014-10-03T07:53:07Z</time>
      </trkpt>
      <trkpt lat="47.48766" lon="6.1702">
        <ele>270</ele>
        <time>2014-10-03T07:53:17Z</time>
      </trkpt>
      <trkpt lat="47.48772" lon="6.17024">
        <ele>273</ele>
        <time>2014-10-03T07:55:31Z</time>
      </trkpt>
      <trkpt lat="47.48774" lon="6.17025">
        <ele>274</ele>
        <time>2014-10-03T07:57:45Z</time>
      </trkpt>
      <trkpt lat="47.48766" lon="6.17037">
        <ele>271</ele>
        <time>2014-10-03T08:00:04Z</time>
      </trkpt>
      <trkpt lat="47.48763" lon="6.17038">
        <ele>273</ele>
        <time>2014-10-03T08:00:15Z</time>
      </trkpt>
      <trkpt lat="47.48762" lon="6.17033">
        <ele>274</ele>
        <time>2014-10-03T08:02:28Z</time>
      </trkpt>
      <trkpt lat="47.48762" lon="6.17029">
        <ele>275</ele>
        <time>2014-10-03T08:02:36Z</time>
      </trkpt>
      <trkpt lat="47.48763" lon="6.17031">
        <ele>275</ele>
        <time>2014-10-03T08:02:46Z</time>
      </trkpt>
      <trkpt lat="47.48763" lon="6.17041">
        <ele>277</ele>
        <time>2014-10-03T08:02:55Z</time>
      </trkpt>
      <trkpt lat="47.4876" lon="6.17042">
        <ele>276</ele>
        <time>2014-10-03T08:03:10Z</time>
      </trkpt>
      <trkpt lat="47.48765" lon="6.17039">
        <ele>278</ele>
        <time>2014-10-03T08:05:32Z</time>
      </trkpt>
      <trkpt lat="47.48766" lon="6.17043">
        <ele>282</ele>
        <time>2014-10-03T08:08:12Z</time>
      </trkpt>
      <trkpt lat="47.48765" lon="6.17029">
        <ele>278</ele>
        <time>2014-10-03T08:08:36Z</time>
      </trkpt>
      <trkpt lat="47.48767" lon="6.17029">
        <ele>279</ele>
        <time>2014-10-03T08:08:41Z</time>
      </trkpt>
      <trkpt lat="47.48765" lon="6.17033">
        <ele>276</ele>
        <time>2014-10-03T08:08:56Z</time>
      </trkpt>
      <trkpt lat="47.48765" lon="6.17039">
        <ele>274</ele>
        <time>2014-10-03T08:09:04Z</time>
      </trkpt>
      <trkpt lat="47.48765" lon="6.17041">
        <ele>275</ele>
        <time>2014-10-03T08:09:10Z</time>
      </trkpt>
      <trkpt lat="47.48768" lon="6.17049">
        <ele>279</ele>
        <time>2014-10-03T08:09:19Z</time>
      </trkpt>
      <trkpt lat="47.48775" lon="6.1706">
        <ele>277</ele>
        <time>2014-10-03T08:09:31Z</time>
      </trkpt>
      <trkpt lat="47.48781" lon="6.17066">
        <ele>276</ele>
        <time>2014-10-03T08:09:38Z</time>
      </trkpt>
      <trkpt lat="47.48783" lon="6.17069">
        <ele>275</ele>
        <time>2014-10-03T08:09:43Z</time>
      </trkpt>
      <trkpt lat="47.48789" lon="6.17076">
        <ele>278</ele>
        <time>2014-10-03T08:09:52Z</time>
      </trkpt>
      <trkpt lat="47.48795" lon="6.17083">
        <ele>278</ele>
        <time>2014-10-03T08:10:02Z</time>
      </trkpt>
      <trkpt lat="47.48803" lon="6.17095">
        <ele>277</ele>
        <time>2014-10-03T08:10:17Z</time>
      </trkpt>
      <trkpt lat="47.48804" lon="6.17098">
        <ele>277</ele>
        <time>2014-10-03T08:10:20Z</time>
      </trkpt>
      <trkpt lat="47.48814" lon="6.17109">
        <ele>280</ele>
        <time>2014-10-03T08:10:31Z</time>
      </trkpt>
      <trkpt lat="47.48819" lon="6.17115">
        <ele>279</ele>
        <time>2014-10-03T08:10:38Z</time>
      </trkpt>
      <trkpt lat="47.48827" lon="6.17128">
        <ele>280</ele>
        <time>2014-10-03T08:10:52Z</time>
      </trkpt>
      <trkpt lat="47.48832" lon="6.17143">
        <ele>279</ele>
        <time>2014-10-03T08:11:03Z</time>
      </trkpt>
      <trkpt lat="47.48835" lon="6.17147">
        <ele>281</ele>
        <time>2014-10-03T08:11:07Z</time>
      </trkpt>
      <trkpt lat="47.48839" lon="6.1716">
        <ele>284</ele>
        <time>2014-10-03T08:11:17Z</time>
      </trkpt>
      <trkpt lat="47.4884" lon="6.17173">
        <ele>286</ele>
        <time>2014-10-03T08:11:25Z</time>
      </trkpt>
      <trkpt lat="47.48839" lon="6.17194">
        <ele>288</ele>
        <time>2014-10-03T08:11:37Z</time>
      </trkpt>
      <trkpt lat="47.48838" lon="6.17204">
        <ele>289</ele>
        <time>2014-10-03T08:11:43Z</time>
      </trkpt>
      <trkpt lat="47.48836" lon="6.17213">
        <ele>289</ele>
        <time>2014-10-03T08:11:49Z</time>
      </trkpt>
      <trkpt lat="47.48836" lon="6.17227">
        <ele>291</ele>
        <time>2014-10-03T08:11:58Z</time>
      </trkpt>
      <trkpt lat="47.48834" lon="6.17244">
        <ele>292</ele>
        <time>2014-10-03T08:12:10Z</time>
      </trkpt>
      <trkpt lat="47.48832" lon="6.17249">
        <ele>291</ele>
        <time>2014-10-03T08:12:21Z</time>
      </trkpt>
      <trkpt lat="47.48831" lon="6.17269">
        <ele>293</ele>
        <time>2014-10-03T08:12:33Z</time>
      </trkpt>
      <trkpt lat="47.48831" lon="6.1727">
        <ele>292</ele>
        <time>2014-10-03T08:12:35Z</time>
      </trkpt>
      <trkpt lat="47.4883" lon="6.17286">
        <ele>291</ele>
        <time>2014-10-03T08:12:46Z</time>
      </trkpt>
      <trkpt lat="47.48829" lon="6.1729">
        <ele>290</ele>
        <time>2014-10-03T08:12:58Z</time>
      </trkpt>
      <trkpt lat="47.48829" lon="6.17294">
        <ele>289</ele>
        <time>2014-10-03T08:13:04Z</time>
      </trkpt>
      <trkpt lat="47.48829" lon="6.17309">
        <ele>287</ele>
        <time>2014-10-03T08:13:13Z</time>
      </trkpt>
      <trkpt lat="47.48828" lon="6.17318">
        <ele>286</ele>
        <time>2014-10-03T08:13:22Z</time>
      </trkpt>
      <trkpt lat="47.48829" lon="6.17343">
        <ele>291</ele>
        <time>2014-10-03T08:13:36Z</time>
      </trkpt>
      <trkpt lat="47.48829" lon="6.17351">
        <ele>290</ele>
        <time>2014-10-03T08:13:41Z</time>
      </trkpt>
      <trkpt lat="47.48826" lon="6.17355">
        <ele>287</ele>
        <time>2014-10-03T08:13:47Z</time>
      </trkpt>
      <trkpt lat="47.48821" lon="6.17374">
        <ele>287</ele>
        <time>2014-10-03T08:14:01Z</time>
      </trkpt>
      <trkpt lat="47.48831" lon="6.17381">
        <ele>286</ele>
        <time>2014-10-03T08:14:13Z</time>
      </trkpt>
      <trkpt lat="47.48834" lon="6.17383">
        <ele>287</ele>
        <time>2014-10-03T08:14:16Z</time>
      </trkpt>
      <trkpt lat="47.48837" lon="6.17394">
        <ele>288</ele>
        <time>2014-10-03T08:14:27Z</time>
      </trkpt>
      <trkpt lat="47.48838" lon="6.17402">
        <ele>291</ele>
        <time>2014-10-03T08:14:35Z</time>
      </trkpt>
      <trkpt lat="47.48838" lon="6.17412">
        <ele>293</ele>
        <time>2014-10-03T08:14:43Z</time>
      </trkpt>
      <trkpt lat="47.48839" lon="6.1742">
        <ele>293</ele>
        <time>2014-10-03T08:14:51Z</time>
      </trkpt>
      <trkpt lat="47.4884" lon="6.17425">
        <ele>293</ele>
        <time>2014-10-03T08:15:02Z</time>
      </trkpt>
      <trkpt lat="47.4884" lon="6.1744">
        <ele>292</ele>
        <time>2014-10-03T08:15:13Z</time>
      </trkpt>
      <trkpt lat="47.48844" lon="6.17454">
        <ele>292</ele>
        <time>2014-10-03T08:15:25Z</time>
      </trkpt>
      <trkpt lat="47.48842" lon="6.1746">
        <ele>292</ele>
        <time>2014-10-03T08:15:32Z</time>
      </trkpt>
      <trkpt lat="47.48844" lon="6.17465">
        <ele>292</ele>
        <time>2014-10-03T08:15:37Z</time>
      </trkpt>
      <trkpt lat="47.48842" lon="6.17519">
        <ele>292</ele>
        <time>2014-10-03T08:16:35Z</time>
      </trkpt>
      <trkpt lat="47.4884" lon="6.17539">
        <ele>293</ele>
        <time>2014-10-03T08:16:44Z</time>
      </trkpt>
      <trkpt lat="47.4884" lon="6.17557">
        <ele>297</ele>
        <time>2014-10-03T08:16:54Z</time>
      </trkpt>
      <trkpt lat="47.4884" lon="6.17561">
        <ele>296</ele>
        <time>2014-10-03T08:16:56Z</time>
      </trkpt>
      <trkpt lat="47.48844" lon="6.17575">
        <ele>296</ele>
        <time>2014-10-03T08:17:05Z</time>
      </trkpt>
      <trkpt lat="47.48843" lon="6.17598">
        <ele>295</ele>
        <time>2014-10-03T08:17:22Z</time>
      </trkpt>
      <trkpt lat="47.48844" lon="6.17599">
        <ele>294</ele>
        <time>2014-10-03T08:17:23Z</time>
      </trkpt>
      <trkpt lat="47.48847" lon="6.17609">
        <ele>298</ele>
        <time>2014-10-03T08:17:33Z</time>
      </trkpt>
      <trkpt lat="47.48854" lon="6.17632">
        <ele>297</ele>
        <time>2014-10-03T08:17:47Z</time>
      </trkpt>
      <trkpt lat="47.48859" lon="6.17651">
        <ele>299</ele>
        <time>2014-10-03T08:17:59Z</time>
      </trkpt>
      <trkpt lat="47.48859" lon="6.17652">
        <ele>300</ele>
        <time>2014-10-03T08:18:00Z</time>
      </trkpt>
      <trkpt lat="47.48868" lon="6.17668">
        <ele>306</ele>
        <time>2014-10-03T08:18:15Z</time>
      </trkpt>
      <trkpt lat="47.48865" lon="6.1768">
        <ele>308</ele>
        <time>2014-10-03T08:18:25Z</time>
      </trkpt>
      <trkpt lat="47.48863" lon="6.17686">
        <ele>309</ele>
        <time>2014-10-03T08:18:34Z</time>
      </trkpt>
      <trkpt lat="47.48857" lon="6.17679">
        <ele>305</ele>
        <time>2014-10-03T08:18:44Z</time>
      </trkpt>
      <trkpt lat="47.48855" lon="6.17677">
        <ele>305</ele>
        <time>2014-10-03T08:18:46Z</time>
      </trkpt>
      <trkpt lat="47.48855" lon="6.17689">
        <ele>307</ele>
        <time>2014-10-03T08:19:03Z</time>
      </trkpt>
      <trkpt lat="47.48858" lon="6.17712">
        <ele>306</ele>
        <time>2014-10-03T08:19:16Z</time>
      </trkpt>
      <trkpt lat="47.48864" lon="6.17732">
        <ele>305</ele>
        <time>2014-10-03T08:19:27Z</time>
      </trkpt>
      <trkpt lat="47.48862" lon="6.17736">
        <ele>304</ele>
        <time>2014-10-03T08:19:30Z</time>
      </trkpt>
      <trkpt lat="47.48863" lon="6.17753">
        <ele>303</ele>
        <time>2014-10-03T08:19:45Z</time>
      </trkpt>
      <trkpt lat="47.48864" lon="6.17755">
        <ele>302</ele>
        <time>2014-10-03T08:19:50Z</time>
      </trkpt>
      <trkpt lat="47.48861" lon="6.17771">
        <ele>301</ele>
        <time>2014-10-03T08:20:02Z</time>
      </trkpt>
      <trkpt lat="47.48861" lon="6.17779">
        <ele>301</ele>
        <time>2014-10-03T08:20:07Z</time>
      </trkpt>
      <trkpt lat="47.48873" lon="6.17818">
        <ele>299</ele>
        <time>2014-10-03T08:20:37Z</time>
      </trkpt>
      <trkpt lat="47.48872" lon="6.17836">
        <ele>302</ele>
        <time>2014-10-03T08:20:48Z</time>
      </trkpt>
      <trkpt lat="47.4887" lon="6.17843">
        <ele>302</ele>
        <time>2014-10-03T08:20:58Z</time>
      </trkpt>
      <trkpt lat="47.48881" lon="6.17898">
        <ele>312</ele>
        <time>2014-10-03T08:22:10Z</time>
      </trkpt>
      <trkpt lat="47.48874" lon="6.17928">
        <ele>317</ele>
        <time>2014-10-03T08:22:19Z</time>
      </trkpt>
      <trkpt lat="47.48872" lon="6.17943">
        <ele>317</ele>
        <time>2014-10-03T08:22:23Z</time>
      </trkpt>
      <trkpt lat="47.48873" lon="6.17962">
        <ele>317</ele>
        <time>2014-10-03T08:22:30Z</time>
      </trkpt>
      <trkpt lat="47.48873" lon="6.17977">
        <ele>316</ele>
        <time>2014-10-03T08:22:40Z</time>
      </trkpt>
      <trkpt lat="47.48875" lon="6.18001">
        <ele>317</ele>
        <time>2014-10-03T08:22:56Z</time>
      </trkpt>
      <trkpt lat="47.48874" lon="6.1801">
        <ele>320</ele>
        <time>2014-10-03T08:23:03Z</time>
      </trkpt>
      <trkpt lat="47.48876" lon="6.18014">
        <ele>320</ele>
        <time>2014-10-03T08:23:08Z</time>
      </trkpt>
      <trkpt lat="47.48875" lon="6.18023">
        <ele>321</ele>
        <time>2014-10-03T08:23:17Z</time>
      </trkpt>
      <trkpt lat="47.48872" lon="6.18033">
        <ele>325</ele>
        <time>2014-10-03T08:23:33Z</time>
      </trkpt>
      <trkpt lat="47.48877" lon="6.18082">
        <ele>322</ele>
        <time>2014-10-03T08:24:08Z</time>
      </trkpt>
      <trkpt lat="47.48878" lon="6.18086">
        <ele>322</ele>
        <time>2014-10-03T08:24:10Z</time>
      </trkpt>
      <trkpt lat="47.48883" lon="6.18109">
        <ele>326</ele>
        <time>2014-10-03T08:24:27Z</time>
      </trkpt>
      <trkpt lat="47.48883" lon="6.18111">
        <ele>325</ele>
        <time>2014-10-03T08:24:29Z</time>
      </trkpt>
      <trkpt lat="47.48882" lon="6.1813">
        <ele>323</ele>
        <time>2014-10-03T08:24:41Z</time>
      </trkpt>
      <trkpt lat="47.48874" lon="6.18151">
        <ele>323</ele>
        <time>2014-10-03T08:24:53Z</time>
      </trkpt>
      <trkpt lat="47.48873" lon="6.18159">
        <ele>322</ele>
        <time>2014-10-03T08:24:58Z</time>
      </trkpt>
      <trkpt lat="47.48878" lon="6.18176">
        <ele>323</ele>
        <time>2014-10-03T08:25:12Z</time>
      </trkpt>
      <trkpt lat="47.48876" lon="6.18184">
        <ele>324</ele>
        <time>2014-10-03T08:25:19Z</time>
      </trkpt>
      <trkpt lat="47.4887" lon="6.18197">
        <ele>324</ele>
        <time>2014-10-03T08:25:28Z</time>
      </trkpt>
      <trkpt lat="47.48867" lon="6.18202">
        <ele>325</ele>
        <time>2014-10-03T08:25:31Z</time>
      </trkpt>
      <trkpt lat="47.48873" lon="6.18224">
        <ele>329</ele>
        <time>2014-10-03T08:25:48Z</time>
      </trkpt>
      <trkpt lat="47.48875" lon="6.18235">
        <ele>332</ele>
        <time>2014-10-03T08:25:55Z</time>
      </trkpt>
      <trkpt lat="47.48877" lon="6.18245">
        <ele>331</ele>
        <time>2014-10-03T08:26:04Z</time>
      </trkpt>
      <trkpt lat="47.48874" lon="6.18253">
        <ele>329</ele>
        <time>2014-10-03T08:26:13Z</time>
      </trkpt>
      <trkpt lat="47.48874" lon="6.18259">
        <ele>326</ele>
        <time>2014-10-03T08:26:18Z</time>
      </trkpt>
      <trkpt lat="47.48876" lon="6.18268">
        <ele>326</ele>
        <time>2014-10-03T08:26:26Z</time>
      </trkpt>
      <trkpt lat="47.48876" lon="6.18272">
        <ele>327</ele>
        <time>2014-10-03T08:26:34Z</time>
      </trkpt>
      <trkpt lat="47.48875" lon="6.18283">
        <ele>324</ele>
        <time>2014-10-03T08:26:56Z</time>
      </trkpt>
      <trkpt lat="47.48873" lon="6.18291">
        <ele>322</ele>
        <time>2014-10-03T08:27:01Z</time>
      </trkpt>
      <trkpt lat="47.48875" lon="6.18308">
        <ele>318</ele>
        <time>2014-10-03T08:27:13Z</time>
      </trkpt>
      <trkpt lat="47.48876" lon="6.18326">
        <ele>312</ele>
        <time>2014-10-03T08:27:26Z</time>
      </trkpt>
      <trkpt lat="47.48864" lon="6.1839">
        <ele>303</ele>
        <time>2014-10-03T08:28:06Z</time>
      </trkpt>
      <trkpt lat="47.48858" lon="6.18408">
        <ele>303</ele>
        <time>2014-10-03T08:28:19Z</time>
      </trkpt>
      <trkpt lat="47.48853" lon="6.18417">
        <ele>302</ele>
        <time>2014-10-03T08:28:27Z</time>
      </trkpt>
      <trkpt lat="47.48851" lon="6.18422">
        <ele>304</ele>
        <time>2014-10-03T08:28:34Z</time>
      </trkpt>
      <trkpt lat="47.48845" lon="6.18431">
        <ele>301</ele>
        <time>2014-10-03T08:28:45Z</time>
      </trkpt>
      <trkpt lat="47.48843" lon="6.18435">
        <ele>300</ele>
        <time>2014-10-03T08:28:48Z</time>
      </trkpt>
      <trkpt lat="47.48838" lon="6.18455">
        <ele>301</ele>
        <time>2014-10-03T08:29:01Z</time>
      </trkpt>
      <trkpt lat="47.48834" lon="6.18464">
        <ele>299</ele>
        <time>2014-10-03T08:29:13Z</time>
      </trkpt>
      <trkpt lat="47.48832" lon="6.18478">
        <ele>301</ele>
        <time>2014-10-03T08:29:23Z</time>
      </trkpt>
      <trkpt lat="47.48832" lon="6.1848">
        <ele>301</ele>
        <time>2014-10-03T08:29:24Z</time>
      </trkpt>
      <trkpt lat="47.48829" lon="6.18494">
        <ele>300</ele>
        <time>2014-10-03T08:29:37Z</time>
      </trkpt>
      <trkpt lat="47.48824" lon="6.18506">
        <ele>301</ele>
        <time>2014-10-03T08:29:50Z</time>
      </trkpt>
      <trkpt lat="47.48823" lon="6.18512">
        <ele>299</ele>
        <time>2014-10-03T08:29:57Z</time>
      </trkpt>
      <trkpt lat="47.48822" lon="6.18517">
        <ele>298</ele>
        <time>2014-10-03T08:30:05Z</time>
      </trkpt>
      <trkpt lat="47.48816" lon="6.18509">
        <ele>297</ele>
        <time>2014-10-03T08:30:44Z</time>
      </trkpt>
      <trkpt lat="47.48817" lon="6.18512">
        <ele>295</ele>
        <time>2014-10-03T08:30:56Z</time>
      </trkpt>
      <trkpt lat="47.48822" lon="6.18519">
        <ele>291</ele>
        <time>2014-10-03T08:31:11Z</time>
      </trkpt>
      <trkpt lat="47.48817" lon="6.18514">
        <ele>294</ele>
        <time>2014-10-03T08:33:24Z</time>
      </trkpt>
      <trkpt lat="47.48815" lon="6.18511">
        <ele>293</ele>
        <time>2014-10-03T08:35:38Z</time>
      </trkpt>
      <trkpt lat="47.48819" lon="6.18509">
        <ele>295</ele>
        <time>2014-10-03T08:37:56Z</time>
      </trkpt>
      <trkpt lat="47.48818" lon="6.18508">
        <ele>296</ele>
        <time>2014-10-03T08:38:01Z</time>
      </trkpt>
      <trkpt lat="47.48816" lon="6.18505">
        <ele>297</ele>
        <time>2014-10-03T08:38:08Z</time>
      </trkpt>
      <trkpt lat="47.48815" lon="6.18507">
        <ele>286</ele>
        <time>2014-10-03T08:40:29Z</time>
      </trkpt>
      <trkpt lat="47.48815" lon="6.1851">
        <ele>285</ele>
        <time>2014-10-03T08:40:36Z</time>
      </trkpt>
      <trkpt lat="47.4884" lon="6.18501">
        <ele>297</ele>
        <time>2014-10-03T08:42:52Z</time>
      </trkpt>
      <trkpt lat="47.48849" lon="6.18504">
        <ele>299</ele>
        <time>2014-10-03T08:42:58Z</time>
      </trkpt>
      <trkpt lat="47.48856" lon="6.18514">
        <ele>298</ele>
        <time>2014-10-03T08:43:05Z</time>
      </trkpt>
      <trkpt lat="47.4887" lon="6.18521">
        <ele>298</ele>
        <time>2014-10-03T08:43:20Z</time>
      </trkpt>
      <trkpt lat="47.48871" lon="6.18525">
        <ele>298</ele>
        <time>2014-10-03T08:43:27Z</time>
      </trkpt>
      <trkpt lat="47.48872" lon="6.18529">
        <ele>298</ele>
        <time>2014-10-03T08:43:32Z</time>
      </trkpt>
      <trkpt lat="47.48894" lon="6.18537">
        <ele>306</ele>
        <time>2014-10-03T08:43:48Z</time>
      </trkpt>
      <trkpt lat="47.48901" lon="6.18539">
        <ele>310</ele>
        <time>2014-10-03T08:43:53Z</time>
      </trkpt>
      <trkpt lat="47.48912" lon="6.18542">
        <ele>313</ele>
        <time>2014-10-03T08:44:00Z</time>
      </trkpt>
      <trkpt lat="47.48922" lon="6.18537">
        <ele>325</ele>
        <time>2014-10-03T08:44:15Z</time>
      </trkpt>
      <trkpt lat="47.4893" lon="6.18538">
        <ele>332</ele>
        <time>2014-10-03T08:44:25Z</time>
      </trkpt>
      <trkpt lat="47.48932" lon="6.18538">
        <ele>332</ele>
        <time>2014-10-03T08:44:29Z</time>
      </trkpt>
      <trkpt lat="47.48939" lon="6.18544">
        <ele>334</ele>
        <time>2014-10-03T08:44:42Z</time>
      </trkpt>
      <trkpt lat="47.48945" lon="6.18548">
        <ele>333</ele>
        <time>2014-10-03T08:44:49Z</time>
      </trkpt>
      <trkpt lat="47.48954" lon="6.18552">
        <ele>334</ele>
        <time>2014-10-03T08:45:00Z</time>
      </trkpt>
      <trkpt lat="47.48958" lon="6.18554">
        <ele>334</ele>
        <time>2014-10-03T08:45:05Z</time>
      </trkpt>
      <trkpt lat="47.48967" lon="6.18562">
        <ele>334</ele>
        <time>2014-10-03T08:45:17Z</time>
      </trkpt>
      <trkpt lat="47.48969" lon="6.18573">
        <ele>329</ele>
        <time>2014-10-03T08:45:26Z</time>
      </trkpt>
      <trkpt lat="47.48978" lon="6.18585">
        <ele>324</ele>
        <time>2014-10-03T08:45:36Z</time>
      </trkpt>
      <trkpt lat="47.48985" lon="6.1859">
        <ele>317</ele>
        <time>2014-10-03T08:45:46Z</time>
      </trkpt>
      <trkpt lat="47.48992" lon="6.18594">
        <ele>316</ele>
        <time>2014-10-03T08:45:53Z</time>
      </trkpt>
      <trkpt lat="47.48997" lon="6.18599">
        <ele>316</ele>
        <time>2014-10-03T08:45:59Z</time>
      </trkpt>
      <trkpt lat="47.49007" lon="6.18603">
        <ele>317</ele>
        <time>2014-10-03T08:46:07Z</time>
      </trkpt>
      <trkpt lat="47.49023" lon="6.18608">
        <ele>318</ele>
        <time>2014-10-03T08:46:23Z</time>
      </trkpt>
      <trkpt lat="47.49024" lon="6.1861">
        <ele>318</ele>
        <time>2014-10-03T08:46:24Z</time>
      </trkpt>
      <trkpt lat="47.49042" lon="6.18622">
        <ele>318</ele>
        <time>2014-10-03T08:46:39Z</time>
      </trkpt>
      <trkpt lat="47.49054" lon="6.18631">
        <ele>319</ele>
        <time>2014-10-03T08:46:50Z</time>
      </trkpt>
      <trkpt lat="47.49055" lon="6.18631">
        <ele>319</ele>
        <time>2014-10-03T08:46:51Z</time>
      </trkpt>
      <trkpt lat="47.49062" lon="6.1864">
        <ele>320</ele>
        <time>2014-10-03T08:47:04Z</time>
      </trkpt>
      <trkpt lat="47.4908" lon="6.18645">
        <ele>315</ele>
        <time>2014-10-03T08:47:17Z</time>
      </trkpt>
      <trkpt lat="47.49089" lon="6.18646">
        <ele>315</ele>
        <time>2014-10-03T08:47:25Z</time>
      </trkpt>
      <trkpt lat="47.49091" lon="6.18647">
        <ele>315</ele>
        <time>2014-10-03T08:47:27Z</time>
      </trkpt>
      <trkpt lat="47.49134" lon="6.18671">
        <ele>310</ele>
        <time>2014-10-03T08:48:18Z</time>
      </trkpt>
      <trkpt lat="47.4914" lon="6.18673">
        <ele>312</ele>
        <time>2014-10-03T08:48:25Z</time>
      </trkpt>
      <trkpt lat="47.49136" lon="6.18687">
        <ele>317</ele>
        <time>2014-10-03T08:48:34Z</time>
      </trkpt>
      <trkpt lat="47.4912" lon="6.18693">
        <ele>324</ele>
        <time>2014-10-03T08:48:45Z</time>
      </trkpt>
      <trkpt lat="47.4912" lon="6.18693">
        <ele>324</ele>
        <time>2014-10-03T08:51:55Z</time>
      </trkpt>
      <trkpt lat="47.49194" lon="6.18728">
        <ele>321</ele>
        <time>2014-10-03T08:52:30Z</time>
      </trkpt>
      <trkpt lat="47.49213" lon="6.18732">
        <ele>317</ele>
        <time>2014-10-03T08:52:39Z</time>
      </trkpt>
      <trkpt lat="47.49219" lon="6.18733">
        <ele>318</ele>
        <time>2014-10-03T08:52:42Z</time>
      </trkpt>
      <trkpt lat="47.4924" lon="6.18741">
        <ele>308</ele>
        <time>2014-10-03T08:52:54Z</time>
      </trkpt>
      <trkpt lat="47.49248" lon="6.18753">
        <ele>307</ele>
        <time>2014-10-03T08:53:05Z</time>
      </trkpt>
      <trkpt lat="47.49252" lon="6.18756">
        <ele>305</ele>
        <time>2014-10-03T08:53:09Z</time>
      </trkpt>
      <trkpt lat="47.49257" lon="6.18764">
        <ele>304</ele>
        <time>2014-10-03T08:53:19Z</time>
      </trkpt>
      <trkpt lat="47.49262" lon="6.18774">
        <ele>305</ele>
        <time>2014-10-03T08:53:30Z</time>
      </trkpt>
      <trkpt lat="47.49269" lon="6.18785">
        <ele>308</ele>
        <time>2014-10-03T08:53:40Z</time>
      </trkpt>
      <trkpt lat="47.49272" lon="6.1879">
        <ele>308</ele>
        <time>2014-10-03T08:53:45Z</time>
      </trkpt>
      <trkpt lat="47.49278" lon="6.18801">
        <ele>310</ele>
        <time>2014-10-03T08:53:55Z</time>
      </trkpt>
      <trkpt lat="47.49285" lon="6.18813">
        <ele>307</ele>
        <time>2014-10-03T08:54:07Z</time>
      </trkpt>
      <trkpt lat="47.49286" lon="6.18819">
        <ele>306</ele>
        <time>2014-10-03T08:54:11Z</time>
      </trkpt>
      <trkpt lat="47.49285" lon="6.18835">
        <ele>308</ele>
        <time>2014-10-03T08:54:22Z</time>
      </trkpt>
      <trkpt lat="47.49295" lon="6.1885">
        <ele>312</ele>
        <time>2014-10-03T08:54:35Z</time>
      </trkpt>
      <trkpt lat="47.49297" lon="6.18853">
        <ele>312</ele>
        <time>2014-10-03T08:54:38Z</time>
      </trkpt>
      <trkpt lat="47.49299" lon="6.18876">
        <ele>311</ele>
        <time>2014-10-03T08:54:53Z</time>
      </trkpt>
      <trkpt lat="47.49302" lon="6.18885">
        <ele>312</ele>
        <time>2014-10-03T08:54:59Z</time>
      </trkpt>
      <trkpt lat="47.4931" lon="6.18903">
        <ele>311</ele>
        <time>2014-10-03T08:55:12Z</time>
      </trkpt>
      <trkpt lat="47.49311" lon="6.18912">
        <ele>308</ele>
        <time>2014-10-03T08:55:16Z</time>
      </trkpt>
      <trkpt lat="47.49319" lon="6.18933">
        <ele>305</ele>
        <time>2014-10-03T08:55:29Z</time>
      </trkpt>
      <trkpt lat="47.4932" lon="6.18939">
        <ele>303</ele>
        <time>2014-10-03T08:55:33Z</time>
      </trkpt>
      <trkpt lat="47.49326" lon="6.18957">
        <ele>297</ele>
        <time>2014-10-03T08:55:47Z</time>
      </trkpt>
      <trkpt lat="47.49331" lon="6.18971">
        <ele>299</ele>
        <time>2014-10-03T08:55:56Z</time>
      </trkpt>
      <trkpt lat="47.49333" lon="6.18978">
        <ele>299</ele>
        <time>2014-10-03T08:56:01Z</time>
      </trkpt>
      <trkpt lat="47.4934" lon="6.18995">
        <ele>300</ele>
        <time>2014-10-03T08:56:14Z</time>
      </trkpt>
      <trkpt lat="47.49344" lon="6.19005">
        <ele>299</ele>
        <time>2014-10-03T08:56:22Z</time>
      </trkpt>
      <trkpt lat="47.49349" lon="6.19008">
        <ele>300</ele>
        <time>2014-10-03T08:56:28Z</time>
      </trkpt>
      <trkpt lat="47.49359" lon="6.1903">
        <ele>305</ele>
        <time>2014-10-03T08:56:43Z</time>
      </trkpt>
      <trkpt lat="47.49361" lon="6.19035">
        <ele>303</ele>
        <time>2014-10-03T08:56:47Z</time>
      </trkpt>
      <trkpt lat="47.49373" lon="6.1904">
        <ele>303</ele>
        <time>2014-10-03T08:56:59Z</time>
      </trkpt>
      <trkpt lat="47.49383" lon="6.19044">
        <ele>302</ele>
        <time>2014-10-03T08:57:08Z</time>
      </trkpt>
      <trkpt lat="47.49391" lon="6.19045">
        <ele>303</ele>
        <time>2014-10-03T08:57:14Z</time>
      </trkpt>
      <trkpt lat="47.494" lon="6.19046">
        <ele>304</ele>
        <time>2014-10-03T08:57:23Z</time>
      </trkpt>
      <trkpt lat="47.49404" lon="6.19038">
        <ele>303</ele>
        <time>2014-10-03T08:57:37Z</time>
      </trkpt>
      <trkpt lat="47.49406" lon="6.1904">
        <ele>304</ele>
        <time>2014-10-03T08:57:42Z</time>
      </trkpt>
      <trkpt lat="47.49414" lon="6.1904">
        <ele>302</ele>
        <time>2014-10-03T08:57:53Z</time>
      </trkpt>
      <trkpt lat="47.49418" lon="6.19041">
        <ele>303</ele>
        <time>2014-10-03T08:57:59Z</time>
      </trkpt>
      <trkpt lat="47.49434" lon="6.19044">
        <ele>308</ele>
        <time>2014-10-03T08:58:13Z</time>
      </trkpt>
      <trkpt lat="47.49441" lon="6.19047">
        <ele>311</ele>
        <time>2014-10-03T08:58:20Z</time>
      </trkpt>
      <trkpt lat="47.49446" lon="6.1905">
        <ele>314</ele>
        <time>2014-10-03T08:58:29Z</time>
      </trkpt>
      <trkpt lat="47.49448" lon="6.1905">
        <ele>314</ele>
        <time>2014-10-03T08:58:32Z</time>
      </trkpt>
      <trkpt lat="47.49459" lon="6.19056">
        <ele>315</ele>
        <time>2014-10-03T08:58:44Z</time>
      </trkpt>
      <trkpt lat="47.49471" lon="6.1906">
        <ele>314</ele>
        <time>2014-10-03T08:58:55Z</time>
      </trkpt>
      <trkpt lat="47.49479" lon="6.19065">
        <ele>313</ele>
        <time>2014-10-03T08:59:05Z</time>
      </trkpt>
      <trkpt lat="47.49491" lon="6.19072">
        <ele>312</ele>
        <time>2014-10-03T08:59:15Z</time>
      </trkpt>
      <trkpt lat="47.49496" lon="6.19078">
        <ele>312</ele>
        <time>2014-10-03T08:59:21Z</time>
      </trkpt>
      <trkpt lat="47.49493" lon="6.19094">
        <ele>310</ele>
        <time>2014-10-03T08:59:32Z</time>
      </trkpt>
      <trkpt lat="47.49491" lon="6.19096">
        <ele>309</ele>
        <time>2014-10-03T08:59:38Z</time>
      </trkpt>
      <trkpt lat="47.49509" lon="6.19097">
        <ele>310</ele>
        <time>2014-10-03T09:00:21Z</time>
      </trkpt>
      <trkpt lat="47.49541" lon="6.19104">
        <ele>309</ele>
        <time>2014-10-03T09:00:35Z</time>
      </trkpt>
      <trkpt lat="47.49556" lon="6.19108">
        <ele>310</ele>
        <time>2014-10-03T09:00:44Z</time>
      </trkpt>
      <trkpt lat="47.49565" lon="6.19116">
        <ele>310</ele>
        <time>2014-10-03T09:00:51Z</time>
      </trkpt>
      <trkpt lat="47.49575" lon="6.19126">
        <ele>312</ele>
        <time>2014-10-03T09:01:02Z</time>
      </trkpt>
      <trkpt lat="47.49578" lon="6.19129">
        <ele>313</ele>
        <time>2014-10-03T09:01:05Z</time>
      </trkpt>
      <trkpt lat="47.49595" lon="6.19133">
        <ele>315</ele>
        <time>2014-10-03T09:01:20Z</time>
      </trkpt>
      <trkpt lat="47.496" lon="6.19135">
        <ele>316</ele>
        <time>2014-10-03T09:01:26Z</time>
      </trkpt>
      <trkpt lat="47.49608" lon="6.19139">
        <ele>318</ele>
        <time>2014-10-03T09:01:34Z</time>
      </trkpt>
      <trkpt lat="47.49624" lon="6.19142">
        <ele>316</ele>
        <time>2014-10-03T09:01:48Z</time>
      </trkpt>
      <trkpt lat="47.49624" lon="6.19145">
        <ele>317</ele>
        <time>2014-10-03T09:01:52Z</time>
      </trkpt>
      <trkpt lat="47.4963" lon="6.19153">
        <ele>316</ele>
        <time>2014-10-03T09:02:01Z</time>
      </trkpt>
      <trkpt lat="47.49636" lon="6.19161">
        <ele>317</ele>
        <time>2014-10-03T09:02:09Z</time>
      </trkpt>
      <trkpt lat="47.49659" lon="6.19173">
        <ele>314</ele>
        <time>2014-10-03T09:02:41Z</time>
      </trkpt>
      <trkpt lat="47.4966" lon="6.19174">
        <ele>314</ele>
        <time>2014-10-03T09:02:44Z</time>
      </trkpt>
      <trkpt lat="47.4967" lon="6.19187">
        <ele>322</ele>
        <time>2014-10-03T09:03:13Z</time>
      </trkpt>
      <trkpt lat="47.49663" lon="6.19195">
        <ele>322</ele>
        <time>2014-10-03T09:03:24Z</time>
      </trkpt>
      <trkpt lat="47.49666" lon="6.19202">
        <ele>325</ele>
        <time>2014-10-03T09:03:32Z</time>
      </trkpt>
      <trkpt lat="47.49669" lon="6.19193">
        <ele>319</ele>
        <time>2014-10-03T09:03:46Z</time>
      </trkpt>
      <trkpt lat="47.49673" lon="6.192">
        <ele>319</ele>
        <time>2014-10-03T09:03:54Z</time>
      </trkpt>
      <trkpt lat="47.49674" lon="6.19202">
        <ele>319</ele>
        <time>2014-10-03T09:03:57Z</time>
      </trkpt>
      <trkpt lat="47.49677" lon="6.19205">
        <ele>318</ele>
        <time>2014-10-03T09:04:06Z</time>
      </trkpt>
      <trkpt lat="47.49685" lon="6.1921">
        <ele>310</ele>
        <time>2014-10-03T09:04:14Z</time>
      </trkpt>
      <trkpt lat="47.49701" lon="6.19217">
        <ele>303</ele>
        <time>2014-10-03T09:04:31Z</time>
      </trkpt>
      <trkpt lat="47.4971" lon="6.19228">
        <ele>302</ele>
        <time>2014-10-03T09:04:40Z</time>
      </trkpt>
      <trkpt lat="47.4972" lon="6.19232">
        <ele>301</ele>
        <time>2014-10-03T09:04:47Z</time>
      </trkpt>
      <trkpt lat="47.4973" lon="6.19239">
        <ele>298</ele>
        <time>2014-10-03T09:04:56Z</time>
      </trkpt>
      <trkpt lat="47.49733" lon="6.19245">
        <ele>297</ele>
        <time>2014-10-03T09:05:03Z</time>
      </trkpt>
      <trkpt lat="47.49738" lon="6.19255">
        <ele>299</ele>
        <time>2014-10-03T09:05:14Z</time>
      </trkpt>
      <trkpt lat="47.49744" lon="6.1926">
        <ele>295</ele>
        <time>2014-10-03T09:05:19Z</time>
      </trkpt>
      <trkpt lat="47.49752" lon="6.19281">
        <ele>287</ele>
        <time>2014-10-03T09:05:33Z</time>
      </trkpt>
      <trkpt lat="47.49754" lon="6.19284">
        <ele>288</ele>
        <time>2014-10-03T09:05:36Z</time>
      </trkpt>
      <trkpt lat="47.49767" lon="6.19285">
        <ele>289</ele>
        <time>2014-10-03T09:05:49Z</time>
      </trkpt>
      <trkpt lat="47.49774" lon="6.19293">
        <ele>287</ele>
        <time>2014-10-03T09:05:59Z</time>
      </trkpt>
      <trkpt lat="47.49787" lon="6.19297">
        <ele>286</ele>
        <time>2014-10-03T09:06:10Z</time>
      </trkpt>
      <trkpt lat="47.49796" lon="6.19296">
        <ele>283</ele>
        <time>2014-10-03T09:06:17Z</time>
      </trkpt>
      <trkpt lat="47.498" lon="6.19298">
        <ele>283</ele>
        <time>2014-10-03T09:06:20Z</time>
      </trkpt>
      <trkpt lat="47.49815" lon="6.19305">
        <ele>283</ele>
        <time>2014-10-03T09:06:33Z</time>
      </trkpt>
      <trkpt lat="47.49825" lon="6.19307">
        <ele>281</ele>
        <time>2014-10-03T09:06:43Z</time>
      </trkpt>
      <trkpt lat="47.49828" lon="6.1931">
        <ele>278</ele>
        <time>2014-10-03T09:06:49Z</time>
      </trkpt>
      <trkpt lat="47.49834" lon="6.19313">
        <ele>275</ele>
        <time>2014-10-03T09:06:58Z</time>
      </trkpt>
      <trkpt lat="47.49851" lon="6.19314">
        <ele>273</ele>
        <time>2014-10-03T09:07:13Z</time>
      </trkpt>
      <trkpt lat="47.49858" lon="6.19312">
        <ele>272</ele>
        <time>2014-10-03T09:07:19Z</time>
      </trkpt>
      <trkpt lat="47.49864" lon="6.19318">
        <ele>271</ele>
        <time>2014-10-03T09:07:27Z</time>
      </trkpt>
      <trkpt lat="47.49903" lon="6.1934">
        <ele>267</ele>
        <time>2014-10-03T09:08:13Z</time>
      </trkpt>
      <trkpt lat="47.49904" lon="6.19345">
        <ele>271</ele>
        <time>2014-10-03T09:08:17Z</time>
      </trkpt>
      <trkpt lat="47.49908" lon="6.19353">
        <ele>268</ele>
        <time>2014-10-03T09:08:30Z</time>
      </trkpt>
      <trkpt lat="47.49907" lon="6.19351">
        <ele>266</ele>
        <time>2014-10-03T09:08:39Z</time>
      </trkpt>
    </trkseg>
  </trk>
</gpx>